CA79 weather

The Ritz-Carlton Hotel Company Heliport
Marina Del Rey, California, United States

Public forecast

Using degrees Fahrenheit for public forecast. Weather courtesy of forecast.io.

Closest aviation weather report (METAR) to The Ritz-Carlton Hotel Company Heliport

Closest report is Santa Monica Municipal Airport, 1.9 nm (3.5 km) N. Retrieved 2020/02/24 00:51 UTC (23 minutes ago):

KSMO 240051Z 23006KT 10SM CLR 14/09 A3023 RMK AO2 SLP235 T01440089

Closest aviation forecast (TAF) to The Ritz-Carlton Hotel Company Heliport

Closest forecast is Santa Monica Municipal Airport, 1.9 nm (3.5 km) N. Retrieved 2020-02-24 00:20 UTC (54 minutes ago):

TAF KSMO 232320Z 2400/2424 23008KT P6SM SKC FM240300 VRB03KT P6SM SKC FM241000 VRB03KT 5SM BR BKN008 FM241700 VRB03KT P6SM FEW010 FM242000 23008KT P6SM SKC